sensor_id;sensor_type;location;lat;lon;timestamp;pressure;altitude;pressure_sealevel;temperature;humidity
65019;BME280;66069;51.164;-114.452;2024-02-23T00:02:09;88083.41;;;16.22;50.04
65019;BME280;66069;51.164;-114.452;2024-02-23T00:04:36;88083.38;;;16.25;49.71
65019;BME280;66069;51.164;-114.452;2024-02-23T00:07:05;88095.88;;;16.21;49.60
65019;BME280;66069;51.164;-114.452;2024-02-23T00:09:34;88088.34;;;16.16;49.65
65019;BME280;66069;51.164;-114.452;2024-02-23T00:12:01;88098.19;;;16.15;49.60
65019;BME280;66069;51.164;-114.452;2024-02-23T00:14:28;88081.97;;;16.10;49.54
65019;BME280;66069;51.164;-114.452;2024-02-23T00:16:56;88087.63;;;16.08;49.51
65019;BME280;66069;51.164;-114.452;2024-02-23T00:19:26;88075.94;;;16.06;49.56
65019;BME280;66069;51.164;-114.452;2024-02-23T00:21:55;88078.56;;;16.02;49.58
65019;BME280;66069;51.164;-114.452;2024-02-23T00:24:21;88077.06;;;16.01;49.42
65019;BME280;66069;51.164;-114.452;2024-02-23T00:26:48;88095.22;;;15.99;49.49
65019;BME280;66069;51.164;-114.452;2024-02-23T00:29:16;88084.28;;;15.97;49.37
65019;BME280;66069;51.164;-114.452;2024-02-23T00:31:43;88076.03;;;15.88;49.41
65019;BME280;66069;51.164;-114.452;2024-02-23T00:34:11;88085.44;;;15.93;49.36
65019;BME280;66069;51.164;-114.452;2024-02-23T00:36:40;88091.13;;;15.91;49.33
65019;BME280;66069;51.164;-114.452;2024-02-23T00:39:07;88086.59;;;15.88;49.25
65019;BME280;66069;51.164;-114.452;2024-02-23T00:41:34;88081.34;;;15.84;49.26
65019;BME280;66069;51.164;-114.452;2024-02-23T00:44:01;88083.59;;;15.86;49.17
65019;BME280;66069;51.164;-114.452;2024-02-23T00:46:27;88088.53;;;15.84;49.17
65019;BME280;66069;51.164;-114.452;2024-02-23T00:48:54;88094.56;;;15.81;49.28
65019;BME280;66069;51.164;-114.452;2024-02-23T00:51:20;88090.78;;;15.82;49.16
65019;BME280;66069;51.164;-114.452;2024-02-23T00:53:47;88082.13;;;15.78;49.23
65019;BME280;66069;51.164;-114.452;2024-02-23T00:56:13;88074.19;;;15.78;49.14
65019;BME280;66069;51.164;-114.452;2024-02-23T00:58:39;88072.66;;;15.77;49.08
65019;BME280;66069;51.164;-114.452;2024-02-23T01:01:06;88067.81;;;15.72;49.16
65019;BME280;66069;51.164;-114.452;2024-02-23T01:03:32;88082.13;;;15.74;49.10
65019;BME280;66069;51.164;-114.452;2024-02-23T01:05:58;88078.38;;;15.68;49.05
65019;BME280;66069;51.164;-114.452;2024-02-23T01:08:24;88087.81;;;15.73;48.96
65019;BME280;66069;51.164;-114.452;2024-02-23T01:10:50;88090.06;;;15.71;49.01
65019;BME280;66069;51.164;-114.452;2024-02-23T01:13:17;88092.72;;;15.71;48.97
65019;BME280;66069;51.164;-114.452;2024-02-23T01:15:43;88093.09;;;15.69;49.01
65019;BME280;66069;51.164;-114.452;2024-02-23T01:18:09;88091.22;;;15.70;49.05
65019;BME280;66069;51.164;-114.452;2024-02-23T01:20:35;88083.31;;;15.66;49.03
65019;BME280;66069;51.164;-114.452;2024-02-23T01:23:02;88083.66;;;15.65;48.96
65019;BME280;66069;51.164;-114.452;2024-02-23T01:25:28;88087.84;;;15.62;49.05
65019;BME280;66069;51.164;-114.452;2024-02-23T01:27:54;88088.22;;;15.64;49.17
65019;BME280;66069;51.164;-114.452;2024-02-23T01:30:20;88078.03;;;15.59;49.05
65019;BME280;66069;51.164;-114.452;2024-02-23T01:32:46;88079.88;;;15.58;49.05
65019;BME280;66069;51.164;-114.452;2024-02-23T01:35:13;88084.06;;;15.63;49.06
65019;BME280;66069;51.164;-114.452;2024-02-23T01:37:39;88079.91;;;15.62;48.98
65019;BME280;66069;51.164;-114.452;2024-02-23T01:40:06;88078.78;;;15.59;48.82
65019;BME280;66069;51.164;-114.452;2024-02-23T01:42:32;88089.34;;;15.59;49.01
65019;BME280;66069;51.164;-114.452;2024-02-23T01:44:59;88090.09;;;15.60;48.88
65019;BME280;66069;51.164;-114.452;2024-02-23T01:47:27;88095.78;;;15.62;48.92
65019;BME280;66069;51.164;-114.452;2024-02-23T01:49:55;88096.88;;;15.61;49.13
65019;BME280;66069;51.164;-114.452;2024-02-23T01:52:22;88090.84;;;15.57;49.22
65019;BME280;66069;51.164;-114.452;2024-02-23T01:54:48;88090.50;;;15.62;49.62
65019;BME280;66069;51.164;-114.452;2024-02-23T01:57:15;88095.78;;;15.62;49.83
65019;BME280;66069;51.164;-114.452;2024-02-23T01:59:41;88089.72;;;15.61;50.00
65019;BME280;66069;51.164;-114.452;2024-02-23T02:02:08;88085.56;;;15.60;50.00
65019;BME280;66069;51.164;-114.452;2024-02-23T02:04:34;88090.84;;;15.60;50.15
65019;BME280;66069;51.164;-114.452;2024-02-23T02:07:01;88074.28;;;15.49;50.11
65019;BME280;66069;51.164;-114.452;2024-02-23T02:09:27;88090.09;;;15.56;49.98
65019;BME280;66069;51.164;-114.452;2024-02-23T02:11:53;88101.81;;;15.63;50.27
65019;BME280;66069;51.164;-114.452;2024-02-23T02:14:19;88095.75;;;15.58;50.11
65019;BME280;66069;51.164;-114.452;2024-02-23T02:16:45;88108.59;;;15.60;50.24
65019;BME280;66069;51.164;-114.452;2024-02-23T02:19:14;88099.91;;;15.59;50.00
65019;BME280;66069;51.164;-114.452;2024-02-23T02:21:41;88106.34;;;15.62;50.12
65019;BME280;66069;51.164;-114.452;2024-02-23T02:24:07;88104.44;;;15.59;50.06
65019;BME280;66069;51.164;-114.452;2024-02-23T02:26:35;88109.34;;;15.64;50.08
65019;BME280;66069;51.164;-114.452;2024-02-23T02:29:02;88108.22;;;15.58;49.96
65019;BME280;66069;51.164;-114.452;2024-02-23T02:31:29;88107.47;;;15.61;49.91
65019;BME280;66069;51.164;-114.452;2024-02-23T02:34:03;88110.84;;;15.61;49.98
65019;BME280;66069;51.164;-114.452;2024-02-23T02:36:30;88105.22;;;15.59;49.87
65019;BME280;66069;51.164;-114.452;2024-02-23T02:38:56;88107.47;;;15.57;49.75
65019;BME280;66069;51.164;-114.452;2024-02-23T02:41:24;88106.31;;;15.58;49.84
65019;BME280;66069;51.164;-114.452;2024-02-23T02:43:53;88100.31;;;15.51;49.66
65019;BME280;66069;51.164;-114.452;2024-02-23T02:46:19;88114.63;;;15.60;49.80
65019;BME280;66069;51.164;-114.452;2024-02-23T02:48:45;88108.22;;;15.58;49.74
65019;BME280;66069;51.164;-114.452;2024-02-23T02:51:12;88099.91;;;15.52;49.76
65019;BME280;66069;51.164;-114.452;2024-02-23T02:53:38;88108.22;;;15.58;49.80
65019;BME280;66069;51.164;-114.452;2024-02-23T02:56:06;88109.34;;;15.57;49.66
65019;BME280;66069;51.164;-114.452;2024-02-23T02:58:32;88107.84;;;15.52;49.70
65019;BME280;66069;51.164;-114.452;2024-02-23T03:00:59;88110.50;;;15.56;49.52
65019;BME280;66069;51.164;-114.452;2024-02-23T03:03:25;88113.13;;;15.56;49.79
65019;BME280;66069;51.164;-114.452;2024-02-23T03:05:51;88118.06;;;15.54;49.73
65019;BME280;66069;51.164;-114.452;2024-02-23T03:08:17;88118.41;;;15.52;49.46
65019;BME280;66069;51.164;-114.452;2024-02-23T03:10:43;88115.81;;;15.49;49.51
65019;BME280;66069;51.164;-114.452;2024-02-23T03:13:09;88118.81;;;15.51;49.60
65019;BME280;66069;51.164;-114.452;2024-02-23T03:15:36;88121.06;;;15.52;49.52
65019;BME280;66069;51.164;-114.452;2024-02-23T03:18:02;88118.06;;;15.50;49.53
65019;BME280;66069;51.164;-114.452;2024-02-23T03:20:28;88125.59;;;15.52;49.51
65019;BME280;66069;51.164;-114.452;2024-02-23T03:22:55;88123.72;;;15.49;49.42
65019;BME280;66069;51.164;-114.452;2024-02-23T03:25:21;88121.84;;;15.46;49.51
65019;BME280;66069;51.164;-114.452;2024-02-23T03:27:47;88117.69;;;15.45;49.47
65019;BME280;66069;51.164;-114.452;2024-02-23T03:30:14;88126.75;;;15.47;49.35
65019;BME280;66069;51.164;-114.452;2024-02-23T03:32:41;88124.88;;;15.48;49.55
65019;BME280;66069;51.164;-114.452;2024-02-23T03:35:08;88127.13;;;15.49;49.54
65019;BME280;66069;51.164;-114.452;2024-02-23T03:37:34;88135.44;;;15.48;49.62
65019;BME280;66069;51.164;-114.452;2024-02-23T03:40:00;88130.53;;;15.50;49.82
65019;BME280;66069;51.164;-114.452;2024-02-23T03:42:26;88134.66;;;15.51;50.03
65019;BME280;66069;51.164;-114.452;2024-02-23T03:44:53;88134.69;;;15.47;50.17
65019;BME280;66069;51.164;-114.452;2024-02-23T03:47:19;88144.09;;;15.52;50.42
65019;BME280;66069;51.164;-114.452;2024-02-23T03:49:45;88135.81;;;15.46;50.35
65019;BME280;66069;51.164;-114.452;2024-02-23T03:52:12;88135.41;;;15.51;50.32
65019;BME280;66069;51.164;-114.452;2024-02-23T03:54:38;88133.91;;;15.50;50.27
65019;BME280;66069;51.164;-114.452;2024-02-23T03:57:05;88130.56;;;15.35;50.27
65019;BME280;66069;51.164;-114.452;2024-02-23T03:59:31;88145.63;;;15.49;50.41
65019;BME280;66069;51.164;-114.452;2024-02-23T04:01:57;88143.72;;;15.46;50.35
65019;BME280;66069;51.164;-114.452;2024-02-23T04:04:23;88161.47;;;15.53;50.10
65019;BME280;66069;51.164;-114.452;2024-02-23T04:06:49;88152.81;;;15.49;50.28
65019;BME280;66069;51.164;-114.452;2024-02-23T04:09:16;88159.22;;;15.48;50.33
65019;BME280;66069;51.164;-114.452;2024-02-23T04:11:42;88159.94;;;15.52;50.38
65019;BME280;66069;51.164;-114.452;2024-02-23T04:14:08;88149.03;;;15.50;50.21
65019;BME280;66069;51.164;-114.452;2024-02-23T04:16:34;88160.34;;;15.54;50.26
65019;BME280;66069;51.164;-114.452;2024-02-23T04:19:00;88148.66;;;15.48;50.21
65019;BME280;66069;51.164;-114.452;2024-02-23T04:21:27;88152.41;;;15.50;50.04
65019;BME280;66069;51.164;-114.452;2024-02-23T04:23:53;88164.13;;;15.53;50.14
65019;BME280;66069;51.164;-114.452;2024-02-23T04:26:19;88153.56;;;15.53;50.10
65019;BME280;66069;51.164;-114.452;2024-02-23T04:28:45;88144.88;;;15.49;50.15
65019;BME280;66069;51.164;-114.452;2024-02-23T04:31:12;88146.00;;;15.48;50.03
65019;BME280;66069;51.164;-114.452;2024-02-23T04:33:38;88148.63;;;15.51;50.14
65019;BME280;66069;51.164;-114.452;2024-02-23T04:36:05;88151.28;;;15.51;49.94
65019;BME280;66069;51.164;-114.452;2024-02-23T04:38:33;88146.00;;;15.51;49.87
65019;BME280;66069;51.164;-114.452;2024-02-23T04:41:03;88141.09;;;15.46;49.83
65019;BME280;66069;51.164;-114.452;2024-02-23T04:43:32;88139.59;;;15.49;49.84
65019;BME280;66069;51.164;-114.452;2024-02-23T04:45:59;88147.50;;;15.45;49.99
65019;BME280;66069;51.164;-114.452;2024-02-23T04:48:25;88151.66;;;15.50;50.02
65019;BME280;66069;51.164;-114.452;2024-02-23T04:50:51;88141.47;;;15.45;49.98
65019;BME280;66069;51.164;-114.452;2024-02-23T04:53:17;88142.22;;;15.49;49.71
65019;BME280;66069;51.164;-114.452;2024-02-23T04:55:45;88140.72;;;15.44;49.88
65019;BME280;66069;51.164;-114.452;2024-02-23T04:58:11;88148.25;;;15.49;50.05
65019;BME280;66069;51.164;-114.452;2024-02-23T05:00:37;88146.38;;;15.50;50.28
65019;BME280;66069;51.164;-114.452;2024-02-23T05:03:05;88138.09;;;15.44;50.35
65019;BME280;66069;51.164;-114.452;2024-02-23T05:05:32;88141.09;;;15.46;50.46
65019;BME280;66069;51.164;-114.452;2024-02-23T05:07:58;88146.00;;;15.51;50.38
65019;BME280;66069;51.164;-114.452;2024-02-23T05:10:25;88136.94;;;15.49;50.43
65019;BME280;66069;51.164;-114.452;2024-02-23T05:12:51;88135.44;;;15.48;50.36
65019;BME280;66069;51.164;-114.452;2024-02-23T05:15:17;88138.09;;;15.48;50.51
65019;BME280;66069;51.164;-114.452;2024-02-23T05:17:44;88135.44;;;15.48;50.37
65019;BME280;66069;51.164;-114.452;2024-02-23T05:20:10;88126.00;;;15.40;50.24
65019;BME280;66069;51.164;-114.452;2024-02-23T05:22:38;88151.66;;;15.50;50.19
65019;BME280;66069;51.164;-114.452;2024-02-23T05:25:05;88146.38;;;15.50;50.28
65019;BME280;66069;51.164;-114.452;2024-02-23T05:27:32;88138.44;;;15.46;50.23
65019;BME280;66069;51.164;-114.452;2024-02-23T05:29:58;88144.50;;;15.47;50.29
65019;BME280;66069;51.164;-114.452;2024-02-23T05:32:24;88145.63;;;15.46;50.34
65019;BME280;66069;51.164;-114.452;2024-02-23T05:34:51;88134.69;;;15.40;50.17
65019;BME280;66069;51.164;-114.452;2024-02-23T05:37:19;88146.38;;;15.46;50.14
65019;BME280;66069;51.164;-114.452;2024-02-23T05:39:45;88145.25;;;15.44;50.16
65019;BME280;66069;51.164;-114.452;2024-02-23T05:42:14;88133.22;;;15.35;49.99
65019;BME280;66069;51.164;-114.452;2024-02-23T05:44:43;88149.00;;;15.46;49.99
65019;BME280;66069;51.164;-114.452;2024-02-23T05:47:10;88142.25;;;15.42;50.31
65019;BME280;66069;51.164;-114.452;2024-02-23T05:49:37;88148.25;;;15.46;49.93
65019;BME280;66069;51.164;-114.452;2024-02-23T05:52:03;88144.91;;;15.42;50.12
65019;BME280;66069;51.164;-114.452;2024-02-23T05:54:29;88158.47;;;15.44;49.95
65019;BME280;66069;51.164;-114.452;2024-02-23T05:56:55;88145.25;;;15.40;50.15
65019;BME280;66069;51.164;-114.452;2024-02-23T05:59:21;88128.31;;;15.30;50.13
65019;BME280;66069;51.164;-114.452;2024-02-23T06:01:48;88143.38;;;15.37;50.11
65019;BME280;66069;51.164;-114.452;2024-02-23T06:04:14;88146.03;;;15.41;49.98
65019;BME280;66069;51.164;-114.452;2024-02-23T06:06:43;88154.31;;;15.43;50.16
65019;BME280;66069;51.164;-114.452;2024-02-23T06:09:09;88157.72;;;15.43;50.01
65019;BME280;66069;51.164;-114.452;2024-02-23T06:11:36;88157.34;;;15.38;49.87
65019;BME280;66069;51.164;-114.452;2024-02-23T06:14:02;88158.09;;;15.42;49.71
65019;BME280;66069;51.164;-114.452;2024-02-23T06:16:28;88162.25;;;15.43;50.07
65019;BME280;66069;51.164;-114.452;2024-02-23T06:18:54;88157.72;;;15.43;49.93
65019;BME280;66069;51.164;-114.452;2024-02-23T06:21:20;88160.00;;;15.41;49.87
65019;BME280;66069;51.164;-114.452;2024-02-23T06:23:47;88161.13;;;15.37;49.88
65019;BME280;66069;51.164;-114.452;2024-02-23T06:26:13;88160.34;;;15.40;49.80
65019;BME280;66069;51.164;-114.452;2024-02-23T06:28:40;88164.53;;;15.41;49.95
65019;BME280;66069;51.164;-114.452;2024-02-23T06:31:09;88160.75;;;15.38;49.72
65019;BME280;66069;51.164;-114.452;2024-02-23T06:33:36;88166.38;;;15.40;49.73
65019;BME280;66069;51.164;-114.452;2024-02-23T06:36:02;88160.00;;;15.38;49.92
65019;BME280;66069;51.164;-114.452;2024-02-23T06:38:30;88158.50;;;15.37;49.86
65019;BME280;66069;51.164;-114.452;2024-02-23T06:40:56;88164.13;;;15.39;49.64
65019;BME280;66069;51.164;-114.452;2024-02-23T06:43:22;88161.88;;;15.33;49.75
65019;BME280;66069;51.164;-114.452;2024-02-23T06:45:49;88161.88;;;15.37;49.75
65019;BME280;66069;51.164;-114.452;2024-02-23T06:48:15;88158.50;;;15.37;49.76
65019;BME280;66069;51.164;-114.452;2024-02-23T06:50:41;88159.63;;;15.35;49.71
65019;BME280;66069;51.164;-114.452;2024-02-23T06:53:07;88161.50;;;15.31;49.41
65019;BME280;66069;51.164;-114.452;2024-02-23T06:55:37;88164.91;;;15.35;49.62
65019;BME280;66069;51.164;-114.452;2024-02-23T06:58:03;88161.53;;;15.35;49.75
65019;BME280;66069;51.164;-114.452;2024-02-23T07:00:30;88157.34;;;15.34;49.67
65019;BME280;66069;51.164;-114.452;2024-02-23T07:02:57;88153.59;;;15.35;49.65
65019;BME280;66069;51.164;-114.452;2024-02-23T07:05:29;88154.72;;;15.30;49.82
65019;BME280;66069;51.164;-114.452;2024-02-23T07:07:55;88159.22;;;15.33;49.69
65019;BME280;66069;51.164;-114.452;2024-02-23T07:10:22;88159.63;;;15.32;49.77
65019;BME280;66069;51.164;-114.452;2024-02-23T07:12:50;88158.50;;;15.29;49.64
65019;BME280;66069;51.164;-114.452;2024-02-23T07:15:19;88156.97;;;15.32;49.64
65019;BME280;66069;51.164;-114.452;2024-02-23T07:17:46;88158.88;;;15.31;49.64
65019;BME280;66069;51.164;-114.452;2024-02-23T07:20:13;88157.38;;;15.30;49.45
65019;BME280;66069;51.164;-114.452;2024-02-23T07:22:42;88159.25;;;15.30;49.61
65019;BME280;66069;51.164;-114.452;2024-02-23T07:25:09;88152.47;;;15.25;49.48
65019;BME280;66069;51.164;-114.452;2024-02-23T07:27:35;88151.31;;;15.26;49.48
65019;BME280;66069;51.164;-114.452;2024-02-23T07:30:02;88152.81;;;15.27;49.48
65019;BME280;66069;51.164;-114.452;2024-02-23T07:32:30;88162.28;;;15.28;49.44
65019;BME280;66069;51.164;-114.452;2024-02-23T07:34:56;88160.00;;;15.27;49.32
65019;BME280;66069;51.164;-114.452;2024-02-23T07:37:22;88156.25;;;15.24;49.55
65019;BME280;66069;51.164;-114.452;2024-02-23T07:39:49;88153.22;;;15.19;49.52
65019;BME280;66069;51.164;-114.452;2024-02-23T07:42:15;88165.66;;;15.25;49.53
65019;BME280;66069;51.164;-114.452;2024-02-23T07:44:44;88154.00;;;15.23;49.32
65019;BME280;66069;51.164;-114.452;2024-02-23T07:47:13;88159.63;;;15.25;49.39
65019;BME280;66069;51.164;-114.452;2024-02-23T07:49:40;88155.88;;;15.19;49.31
65019;BME280;66069;51.164;-114.452;2024-02-23T07:52:09;88167.94;;;15.23;49.55
65019;BME280;66069;51.164;-114.452;2024-02-23T07:54:35;88148.34;;;15.17;49.34
65019;BME280;66069;51.164;-114.452;2024-02-23T07:57:01;88158.88;;;15.21;49.34
65019;BME280;66069;51.164;-114.452;2024-02-23T07:59:29;88150.22;;;15.17;49.19
65019;BME280;66069;51.164;-114.452;2024-02-23T08:01:55;88155.88;;;15.15;49.23
65019;BME280;66069;51.164;-114.452;2024-02-23T08:04:22;88158.13;;;15.20;49.49
65019;BME280;66069;51.164;-114.452;2024-02-23T08:06:48;88159.25;;;15.19;49.51
65019;BME280;66069;51.164;-114.452;2024-02-23T08:09:15;88146.06;;;15.12;49.41
65019;BME280;66069;51.164;-114.452;2024-02-23T08:11:41;88150.97;;;15.17;49.36
65019;BME280;66069;51.164;-114.452;2024-02-23T08:14:07;88139.66;;;15.02;49.57
65019;BME280;66069;51.164;-114.452;2024-02-23T08:16:34;88148.72;;;15.16;49.31
65019;BME280;66069;51.164;-114.452;2024-02-23T08:19:00;88154.00;;;15.12;49.09
65019;BME280;66069;51.164;-114.452;2024-02-23T08:21:27;88138.88;;;15.09;49.32
65019;BME280;66069;51.164;-114.452;2024-02-23T08:23:53;88157.75;;;15.15;49.11
65019;BME280;66069;51.164;-114.452;2024-02-23T08:26:19;88146.44;;;15.14;49.30
65019;BME280;66069;51.164;-114.452;2024-02-23T08:28:45;88149.06;;;15.14;49.39
65019;BME280;66069;51.164;-114.452;2024-02-23T08:31:12;88143.44;;;15.12;49.34
65019;BME280;66069;51.164;-114.452;2024-02-23T08:33:38;88140.03;;;15.12;49.02
65019;BME280;66069;51.164;-114.452;2024-02-23T08:36:04;88140.03;;;15.12;48.98
65019;BME280;66069;51.164;-114.452;2024-02-23T08:38:32;88134.78;;;15.04;49.22
65019;BME280;66069;51.164;-114.452;2024-02-23T08:40:58;88142.69;;;15.12;49.18
65019;BME280;66069;51.164;-114.452;2024-02-23T08:43:25;88147.97;;;15.12;48.97
65019;BME280;66069;51.164;-114.452;2024-02-23T08:45:51;88137.41;;;15.12;49.16
65019;BME280;66069;51.164;-114.452;2024-02-23T08:48:17;88135.88;;;15.07;49.38
65019;BME280;66069;51.164;-114.452;2024-02-23T08:50:44;88135.88;;;15.07;49.25
65019;BME280;66069;51.164;-114.452;2024-02-23T08:53:10;88130.97;;;15.09;49.12
65019;BME280;66069;51.164;-114.452;2024-02-23T08:55:36;88129.84;;;15.06;48.92
65019;BME280;66069;51.164;-114.452;2024-02-23T08:58:02;88130.25;;;15.05;49.16
65019;BME280;66069;51.164;-114.452;2024-02-23T09:00:29;88140.03;;;15.08;49.19
65019;BME280;66069;51.164;-114.452;2024-02-23T09:02:55;88137.41;;;15.04;48.72
65019;BME280;66069;51.164;-114.452;2024-02-23T09:05:21;88136.66;;;15.04;49.05
65019;BME280;66069;51.164;-114.452;2024-02-23T09:07:47;88137.41;;;15.04;49.00
65019;BME280;66069;51.164;-114.452;2024-02-23T09:10:13;88133.63;;;15.05;48.96
65019;BME280;66069;51.164;-114.452;2024-02-23T09:12:40;88139.66;;;15.02;48.89
65019;BME280;66069;51.164;-114.452;2024-02-23T09:15:06;88134.00;;;15.00;48.83
65019;BME280;66069;51.164;-114.452;2024-02-23T09:17:33;88129.50;;;14.97;49.00
65019;BME280;66069;51.164;-114.452;2024-02-23T09:19:59;88130.63;;;15.00;49.12
65019;BME280;66069;51.164;-114.452;2024-02-23T09:22:25;88132.13;;;15.01;49.07
65019;BME280;66069;51.164;-114.452;2024-02-23T09:24:52;88117.78;;;14.95;48.98
65019;BME280;66069;51.164;-114.452;2024-02-23T09:27:20;88129.47;;;15.01;49.19
65019;BME280;66069;51.164;-114.452;2024-02-23T09:29:47;88124.19;;;15.01;48.99
65019;BME280;66069;51.164;-114.452;2024-02-23T09:32:13;88121.56;;;14.97;49.27
65019;BME280;66069;51.164;-114.452;2024-02-23T09:34:39;88130.25;;;14.94;49.13
65019;BME280;66069;51.164;-114.452;2024-02-23T09:37:05;88100.06;;;14.77;48.94
65019;BME280;66069;51.164;-114.452;2024-02-23T09:39:32;88124.97;;;14.94;48.86
65019;BME280;66069;51.164;-114.452;2024-02-23T09:41:58;88125.72;;;14.95;49.01
65019;BME280;66069;51.164;-114.452;2024-02-23T09:44:29;88130.25;;;14.98;48.95
65019;BME280;66069;51.164;-114.452;2024-02-23T09:47:00;88128.00;;;14.93;49.03
65019;BME280;66069;51.164;-114.452;2024-02-23T09:49:38;88104.97;;;14.82;49.12
65019;BME280;66069;51.164;-114.452;2024-02-23T09:52:07;88124.56;;;14.96;48.92
65019;BME280;66069;51.164;-114.452;2024-02-23T09:54:37;88121.97;;;14.92;48.88
65019;BME280;66069;51.164;-114.452;2024-02-23T09:57:07;88121.56;;;14.94;48.88
65019;BME280;66069;51.164;-114.452;2024-02-23T09:59:35;88123.47;;;14.93;48.89
65019;BME280;66069;51.164;-114.452;2024-02-23T10:02:06;88108.38;;;14.90;48.70
65019;BME280;66069;51.164;-114.452;2024-02-23T10:04:34;88107.25;;;14.88;48.98
65019;BME280;66069;51.164;-114.452;2024-02-23T10:07:00;88113.28;;;14.92;48.83
65019;BME280;66069;51.164;-114.452;2024-02-23T10:09:26;88114.41;;;14.91;48.90
65019;BME280;66069;51.164;-114.452;2024-02-23T10:11:53;88113.66;;;14.87;48.92
65019;BME280;66069;51.164;-114.452;2024-02-23T10:14:21;88118.91;;;14.90;49.01
65019;BME280;66069;51.164;-114.452;2024-02-23T10:16:47;88118.16;;;14.90;48.80
65019;BME280;66069;51.164;-114.452;2024-02-23T10:19:18;88114.03;;;14.89;49.03
65019;BME280;66069;51.164;-114.452;2024-02-23T10:21:45;88110.25;;;14.82;48.66
65019;BME280;66069;51.164;-114.452;2024-02-23T10:24:13;88117.81;;;14.88;48.73
65019;BME280;66069;51.164;-114.452;2024-02-23T10:26:42;88112.91;;;14.86;48.92
65019;BME280;66069;51.164;-114.452;2024-02-23T10:29:08;88111.41;;;14.85;48.76
65019;BME280;66069;51.164;-114.452;2024-02-23T10:31:37;88107.63;;;14.82;48.89
65019;BME280;66069;51.164;-114.452;2024-02-23T10:34:09;88114.03;;;14.81;48.99
65019;BME280;66069;51.164;-114.452;2024-02-23T10:36:41;88108.00;;;14.85;48.97
65019;BME280;66069;51.164;-114.452;2024-02-23T10:39:09;88101.59;;;14.82;48.74
65019;BME280;66069;51.164;-114.452;2024-02-23T10:41:44;88100.84;;;14.81;48.99
65019;BME280;66069;51.164;-114.452;2024-02-23T10:44:12;88095.94;;;14.80;48.74
65019;BME280;66069;51.164;-114.452;2024-02-23T10:46:41;88101.59;;;14.78;48.88
65019;BME280;66069;51.164;-114.452;2024-02-23T10:49:08;88092.91;;;14.81;48.62
65019;BME280;66069;51.164;-114.452;2024-02-23T10:51:36;88096.34;;;14.78;48.89
65019;BME280;66069;51.164;-114.452;2024-02-23T10:54:03;88089.16;;;14.68;48.46
65019;BME280;66069;51.164;-114.452;2024-02-23T10:56:30;88100.84;;;14.78;48.73
65019;BME280;66069;51.164;-114.452;2024-02-23T10:58:56;88082.00;;;14.65;48.63
65019;BME280;66069;51.164;-114.452;2024-02-23T11:01:24;88103.09;;;14.76;48.59
65019;BME280;66069;51.164;-114.452;2024-02-23T11:03:51;88103.13;;;14.79;48.69
65019;BME280;66069;51.164;-114.452;2024-02-23T11:06:19;88094.81;;;14.74;48.63
65019;BME280;66069;51.164;-114.452;2024-02-23T11:08:47;88093.69;;;14.75;48.79
65019;BME280;66069;51.164;-114.452;2024-02-23T11:11:16;88104.25;;;14.78;48.58
65019;BME280;66069;51.164;-114.452;2024-02-23T11:13:45;88074.84;;;14.62;48.67
65019;BME280;66069;51.164;-114.452;2024-02-23T11:16:21;88088.00;;;14.76;48.54
65019;BME280;66069;51.164;-114.452;2024-02-23T11:19:04;88080.47;;;14.75;48.53
65019;BME280;66069;51.164;-114.452;2024-02-23T11:21:35;88087.28;;;14.72;48.58
65019;BME280;66069;51.164;-114.452;2024-02-23T11:24:05;88079.72;;;14.74;48.42
65019;BME280;66069;51.164;-114.452;2024-02-23T11:26:32;88095.56;;;14.74;48.72
65019;BME280;66069;51.164;-114.452;2024-02-23T11:29:10;88088.78;;;14.73;48.58
65019;BME280;66069;51.164;-114.452;2024-02-23T11:31:44;88087.66;;;14.67;48.63
65019;BME280;66069;51.164;-114.452;2024-02-23T11:34:11;88090.28;;;14.71;48.51
65019;BME280;66069;51.164;-114.452;2024-02-23T11:36:39;88091.03;;;14.71;48.62
65019;BME280;66069;51.164;-114.452;2024-02-23T11:39:05;88074.84;;;14.66;48.63
65019;BME280;66069;51.164;-114.452;2024-02-23T11:41:31;88098.59;;;14.69;48.67
65019;BME280;66069;51.164;-114.452;2024-02-23T11:43:58;88086.88;;;14.70;48.69
65019;BME280;66069;51.164;-114.452;2024-02-23T11:46:24;88066.91;;;14.51;48.60
65019;BME280;66069;51.164;-114.452;2024-02-23T11:48:50;88084.63;;;14.69;48.75
65019;BME280;66069;51.164;-114.452;2024-02-23T11:51:23;88086.53;;;14.68;48.56
65019;BME280;66069;51.164;-114.452;2024-02-23T11:53:52;88093.69;;;14.68;48.71
65019;BME280;66069;51.164;-114.452;2024-02-23T11:56:19;88082.00;;;14.65;48.65
65019;BME280;66069;51.164;-114.452;2024-02-23T11:58:46;88069.19;;;14.60;48.40
65019;BME280;66069;51.164;-114.452;2024-02-23T12:01:13;88082.38;;;14.64;48.78
65019;BME280;66069;51.164;-114.452;2024-02-23T12:03:39;88080.13;;;14.66;48.54
65019;BME280;66069;51.164;-114.452;2024-02-23T12:06:07;88075.22;;;14.64;48.59
65019;BME280;66069;51.164;-114.452;2024-02-23T12:08:33;88077.47;;;14.62;48.60
65019;BME280;66069;51.164;-114.452;2024-02-23T12:11:07;88072.19;;;14.62;48.50
65019;BME280;66069;51.164;-114.452;2024-02-23T12:13:37;88070.69;;;14.61;48.53
65019;BME280;66069;51.164;-114.452;2024-02-23T12:16:03;88070.69;;;14.58;48.67
65019;BME280;66069;51.164;-114.452;2024-02-23T12:18:33;88070.31;;;14.59;48.47
65019;BME280;66069;51.164;-114.452;2024-02-23T12:21:08;88072.59;;;14.61;48.88
65019;BME280;66069;51.164;-114.452;2024-02-23T12:23:41;88077.47;;;14.62;48.47
65019;BME280;66069;51.164;-114.452;2024-02-23T12:26:08;88068.81;;;14.58;48.67
65019;BME280;66069;51.164;-114.452;2024-02-23T12:28:35;88065.03;;;14.56;48.94
65019;BME280;66069;51.164;-114.452;2024-02-23T12:31:04;88077.84;;;14.64;49.07